createdAt,value
2023-01-28T00:01:20.122Z,100.00
2023-01-28T00:03:51.111Z,100.00
2023-01-28T00:06:19.079Z,100.00
2023-01-28T00:08:46.078Z,100.00
2023-01-28T00:11:13.699Z,100.00
2023-01-28T00:13:40.991Z,100.00
2023-01-28T00:16:11.512Z,100.00
2023-01-28T00:18:38.424Z,100.00
2023-01-28T00:21:07.836Z,100.00
2023-01-28T00:23:35.765Z,100.00
2023-01-28T00:26:05.065Z,100.00
2023-01-28T00:28:31.578Z,100.00
2023-01-28T00:30:58.273Z,100.00
2023-01-28T00:33:25.292Z,100.00
2023-01-28T00:36:02.308Z,100.00
2023-01-28T00:38:29.408Z,100.00
2023-01-28T00:40:56.507Z,99.66
2023-01-28T00:43:23.142Z,99.66
2023-01-28T00:45:50.460Z,99.33
2023-01-28T00:48:17.193Z,98.78
2023-01-28T00:50:45.666Z,98.97
2023-01-28T00:53:12.300Z,98.84
2023-01-28T00:55:39.155Z,99.24
2023-01-28T00:58:05.932Z,99.03
2023-01-28T01:00:32.684Z,99.22
2023-01-28T01:02:59.999Z,99.50
2023-01-28T01:05:26.681Z,98.19
2023-01-28T01:07:53.668Z,98.05
2023-01-28T01:10:20.755Z,98.49
2023-01-28T01:12:48.557Z,98.19
2023-01-28T01:15:17.427Z,97.89
2023-01-28T01:17:47.720Z,98.28
2023-01-28T01:20:24.367Z,97.22
2023-01-28T01:22:51.619Z,97.60
2023-01-28T01:25:19.392Z,97.65
2023-01-28T01:27:49.128Z,98.31
2023-01-28T01:30:16.549Z,97.53
2023-01-28T01:32:43.336Z,98.07
2023-01-28T01:35:11.131Z,98.16
2023-01-28T01:37:38.008Z,97.66
2023-01-28T01:40:05.411Z,98.20
2023-01-28T01:42:33.246Z,98.07
2023-01-28T01:45:06.068Z,98.01
2023-01-28T01:47:45.996Z,97.89
2023-01-28T01:50:43.355Z,98.66
2023-01-28T01:53:15.758Z,98.77
2023-01-28T01:55:48.693Z,98.67
2023-01-28T01:58:18.613Z,98.64
2023-01-28T02:00:46.461Z,98.38
2023-01-28T02:03:14.183Z,97.97
2023-01-28T02:05:40.927Z,97.65
2023-01-28T02:08:22.671Z,97.18
2023-01-28T02:11:01.421Z,97.89
2023-01-28T02:13:33.972Z,97.73
2023-01-28T02:16:02.136Z,97.93
2023-01-28T02:18:28.883Z,97.78
2023-01-28T02:21:07.280Z,97.77
2023-01-28T02:23:48.797Z,97.42
2023-01-28T02:26:33.670Z,97.83
2023-01-28T02:29:32.541Z,97.03
2023-01-28T02:32:04.994Z,95.90
2023-01-28T02:34:43.108Z,96.84
2023-01-28T02:37:29.576Z,96.92
2023-01-28T02:40:01.378Z,97.32
2023-01-28T02:42:31.853Z,97.37
2023-01-28T02:44:58.662Z,97.73
2023-01-28T02:47:44.244Z,97.41
2023-01-28T02:50:17.623Z,96.88
2023-01-28T02:53:15.279Z,96.73
2023-01-28T02:56:11.154Z,96.55
2023-01-28T02:58:46.855Z,96.39
2023-01-28T03:01:34.029Z,96.36
2023-01-28T03:04:28.667Z,96.13
2023-01-28T03:07:00.831Z,96.47
2023-01-28T03:09:27.588Z,96.08
2023-01-28T03:12:45.306Z,95.46
2023-01-28T03:15:36.441Z,96.23
2023-01-28T03:18:36.743Z,95.68
2023-01-28T03:21:29.280Z,96.10
2023-01-28T03:24:31.665Z,95.71
2023-01-28T03:27:23.395Z,95.18
2023-01-28T03:30:12.763Z,95.43
2023-01-28T03:33:00.111Z,94.99
2023-01-28T03:35:49.434Z,94.91
2023-01-28T03:38:21.191Z,94.82
2023-01-28T03:41:02.609Z,94.95
2023-01-28T03:43:30.793Z,95.46
2023-01-28T03:45:57.784Z,95.06
2023-01-28T03:48:27.144Z,95.01
2023-01-28T03:50:54.906Z,95.44
2023-01-28T03:53:22.452Z,95.29
2023-01-28T03:55:51.556Z,95.10
2023-01-28T03:58:19.218Z,95.44
2023-01-28T04:00:45.865Z,95.81
2023-01-28T04:03:18.733Z,95.27
2023-01-28T04:05:46.183Z,95.81
2023-01-28T04:08:13.939Z,95.67
2023-01-28T04:10:41.152Z,95.60
2023-01-28T04:13:07.761Z,94.88
2023-01-28T04:15:35.920Z,95.19
2023-01-28T04:18:02.576Z,95.09
2023-01-28T04:20:29.412Z,95.02
2023-01-28T04:22:56.107Z,94.76
2023-01-28T04:25:22.841Z,94.68
2023-01-28T04:27:49.517Z,94.68
2023-01-28T04:30:16.475Z,94.21
2023-01-28T04:32:43.098Z,94.21
2023-01-28T04:35:09.989Z,94.74
2023-01-28T04:37:36.936Z,95.10
2023-01-28T04:40:03.903Z,94.66
2023-01-28T04:42:30.500Z,94.37
2023-01-28T04:44:57.106Z,94.29
2023-01-28T04:47:23.737Z,94.69
2023-01-28T04:49:51.285Z,94.03
2023-01-28T04:52:17.940Z,94.06
2023-01-28T04:54:44.592Z,93.92
2023-01-28T04:57:11.216Z,93.46
2023-01-28T04:59:37.882Z,93.50
2023-01-28T05:02:04.681Z,93.79
2023-01-28T05:04:31.608Z,93.38
2023-01-28T05:06:58.605Z,93.50
2023-01-28T05:09:25.311Z,93.88
2023-01-28T05:11:51.926Z,93.77
2023-01-28T05:14:18.620Z,93.63
2023-01-28T05:16:45.212Z,94.55
2023-01-28T05:19:11.806Z,94.12
2023-01-28T05:21:38.424Z,93.18
2023-01-28T05:24:05.574Z,93.21
2023-01-28T05:26:32.442Z,93.20
2023-01-28T05:28:59.064Z,92.96
2023-01-28T05:31:25.733Z,92.32
2023-01-28T05:33:53.121Z,92.79
2023-01-28T05:36:20.221Z,92.93
2023-01-28T05:38:46.768Z,92.26
2023-01-28T05:41:13.381Z,92.39
2023-01-28T05:43:40.168Z,93.03
2023-01-28T05:46:06.893Z,92.90
2023-01-28T05:48:33.557Z,92.71
2023-01-28T05:51:00.257Z,93.02
2023-01-28T05:53:26.905Z,93.03
2023-01-28T05:55:54.151Z,92.56
2023-01-28T05:58:21.361Z,92.88
2023-01-28T06:00:48.190Z,91.15
2023-01-28T06:03:14.808Z,90.08
2023-01-28T06:05:41.407Z,90.22
2023-01-28T06:08:08.022Z,89.84
2023-01-28T06:10:34.700Z,89.74
2023-01-28T06:13:02.211Z,89.06
2023-01-28T06:15:29.051Z,88.63
2023-01-28T06:17:55.810Z,88.82
2023-01-28T06:20:22.707Z,88.68
2023-01-28T06:22:52.799Z,87.90
2023-01-28T06:25:19.472Z,87.80
2023-01-28T06:27:46.363Z,88.09
2023-01-28T06:30:13.645Z,88.49
2023-01-28T06:32:40.889Z,89.17
2023-01-28T06:35:08.843Z,88.23
2023-01-28T06:37:35.580Z,87.92
2023-01-28T06:40:03.497Z,86.05
2023-01-28T06:42:30.129Z,85.81
2023-01-28T06:44:56.869Z,84.81
2023-01-28T06:47:23.584Z,85.41
2023-01-28T06:49:50.147Z,85.30
2023-01-28T06:52:16.788Z,84.72
2023-01-28T06:54:43.480Z,83.99
2023-01-28T06:57:10.191Z,84.43
2023-01-28T06:59:36.781Z,84.75
2023-01-28T07:02:03.496Z,84.61
2023-01-28T07:04:30.151Z,85.17
2023-01-28T07:06:56.934Z,84.89
2023-01-28T07:09:23.684Z,85.47
2023-01-28T07:11:50.336Z,85.52
2023-01-28T07:14:16.947Z,86.20
2023-01-28T07:16:43.584Z,85.81
2023-01-28T07:19:10.687Z,85.47
2023-01-28T07:21:37.418Z,85.29
2023-01-28T07:24:05.357Z,84.37
2023-01-28T07:26:32.199Z,84.31
2023-01-28T07:28:58.809Z,84.58
2023-01-28T07:31:25.553Z,84.89
2023-01-28T07:33:52.262Z,85.41
2023-01-28T07:36:18.935Z,85.15
2023-01-28T07:38:45.583Z,84.80
2023-01-28T07:41:12.250Z,84.64
2023-01-28T07:43:38.890Z,84.08
2023-01-28T07:46:05.517Z,84.90
2023-01-28T07:48:32.449Z,84.42
2023-01-28T07:51:00.161Z,84.58
2023-01-28T07:53:26.782Z,84.97
2023-01-28T07:55:59.587Z,84.81
2023-01-28T07:58:26.160Z,85.61
2023-01-28T08:00:57.638Z,85.56
2023-01-28T08:03:24.435Z,85.36
2023-01-28T08:05:53.265Z,85.78
2023-01-28T08:08:20.101Z,85.39
2023-01-28T08:10:47.250Z,86.00
2023-01-28T08:13:16.069Z,85.57
2023-01-28T08:15:43.115Z,85.82
2023-01-28T08:18:13.397Z,85.96
2023-01-28T08:20:41.057Z,85.31
2023-01-28T08:23:16.455Z,85.03
2023-01-28T08:25:43.433Z,84.70
2023-01-28T08:28:10.746Z,83.89
2023-01-28T08:30:39.154Z,83.40
2023-01-28T08:33:07.585Z,83.52
2023-01-28T08:35:34.738Z,84.06
2023-01-28T08:38:02.671Z,84.81
2023-01-28T08:40:29.846Z,83.89
2023-01-28T08:42:57.324Z,83.78
2023-01-28T08:45:27.926Z,83.19
2023-01-28T08:47:56.179Z,83.04
2023-01-28T08:50:24.365Z,83.22
2023-01-28T08:53:05.894Z,83.02
2023-01-28T08:55:34.402Z,82.85
2023-01-28T08:58:05.794Z,82.58
2023-01-28T09:00:34.048Z,82.36
2023-01-28T09:03:00.700Z,82.20
2023-01-28T09:05:27.523Z,81.60
2023-01-28T09:07:54.419Z,81.25
2023-01-28T09:10:21.998Z,81.48
2023-01-28T09:12:48.877Z,81.55
2023-01-28T09:15:15.549Z,81.04
2023-01-28T09:17:42.383Z,79.91
2023-01-28T09:20:09.658Z,80.51
2023-01-28T09:22:36.522Z,80.04
2023-01-28T09:25:03.322Z,79.37
2023-01-28T09:27:29.996Z,79.63
2023-01-28T09:29:56.621Z,77.43
2023-01-28T09:32:24.830Z,77.09
2023-01-28T09:34:51.589Z,76.44
2023-01-28T09:37:18.457Z,77.10
2023-01-28T09:39:45.135Z,76.61
2023-01-28T09:42:39.558Z,75.79
2023-01-28T09:45:34.698Z,75.21
2023-01-28T09:48:05.008Z,73.05
2023-01-28T09:50:38.665Z,73.09
2023-01-28T09:53:24.913Z,74.09
2023-01-28T09:56:04.569Z,75.77
2023-01-28T09:58:31.893Z,76.62
2023-01-28T10:01:22.177Z,76.67
2023-01-28T10:03:58.069Z,75.47
2023-01-28T10:06:42.657Z,76.02
2023-01-28T10:09:15.034Z,75.67
2023-01-28T10:12:02.901Z,76.68
2023-01-28T10:15:00.863Z,76.21
2023-01-28T10:17:47.580Z,74.72
2023-01-28T10:20:21.019Z,75.77
2023-01-28T10:22:54.327Z,77.14
2023-01-28T10:25:24.440Z,77.65
2023-01-28T10:27:52.188Z,77.41
2023-01-28T10:30:25.586Z,76.95
2023-01-28T10:32:56.548Z,75.83
2023-01-28T10:35:24.239Z,76.50
2023-01-28T10:38:02.483Z,76.90
2023-01-28T10:40:29.385Z,77.53
2023-01-28T10:42:56.000Z,78.18
2023-01-28T10:45:37.966Z,75.55
2023-01-28T10:48:33.330Z,75.64
2023-01-28T10:51:05.124Z,76.29
2023-01-28T10:53:36.135Z,74.92
2023-01-28T10:56:04.899Z,75.35
2023-01-28T10:58:35.011Z,74.97
2023-01-28T11:01:05.144Z,75.18
2023-01-28T11:03:32.084Z,74.90
2023-01-28T11:05:59.513Z,74.09
2023-01-28T11:08:28.811Z,73.42
2023-01-28T11:10:56.058Z,73.63
2023-01-28T11:13:30.675Z,72.59
2023-01-28T11:16:21.041Z,73.48
2023-01-28T11:18:54.447Z,73.98
2023-01-28T11:21:30.276Z,73.23
2023-01-28T11:24:07.440Z,73.06
2023-01-28T11:26:38.496Z,72.67
2023-01-28T11:29:06.359Z,73.57
2023-01-28T11:31:43.409Z,73.38
2023-01-28T11:34:16.009Z,73.31
2023-01-28T11:36:53.962Z,72.05
2023-01-28T11:39:27.700Z,73.79
2023-01-28T11:41:54.894Z,72.82
2023-01-28T11:44:21.547Z,73.02
2023-01-28T11:47:11.702Z,73.05
2023-01-28T11:49:54.104Z,73.27
2023-01-28T11:53:04.425Z,73.43
2023-01-28T11:56:07.158Z,73.25
2023-01-28T11:58:33.714Z,73.07
2023-01-28T12:01:08.924Z,71.22
2023-01-28T12:03:54.155Z,70.99
2023-01-28T12:06:36.157Z,72.08
2023-01-28T12:09:25.314Z,72.54
2023-01-28T12:12:16.024Z,72.02
2023-01-28T12:15:25.006Z,70.77
2023-01-28T12:18:13.164Z,69.46
2023-01-28T12:20:52.916Z,68.60
2023-01-28T12:23:34.850Z,69.35
2023-01-28T12:26:37.020Z,70.17
2023-01-28T12:29:03.558Z,71.04
2023-01-28T12:31:54.736Z,71.88
2023-01-28T12:35:03.989Z,71.88
2023-01-28T12:37:42.701Z,72.65
2023-01-28T12:40:21.458Z,71.31
2023-01-28T12:43:02.558Z,71.23
2023-01-28T12:45:38.814Z,70.97
2023-01-28T12:48:34.551Z,70.68
2023-01-28T12:51:08.410Z,71.97
2023-01-28T12:53:47.313Z,71.93
2023-01-28T12:56:42.956Z,72.55
2023-01-28T12:59:20.207Z,71.42
2023-01-28T13:02:06.830Z,72.54
2023-01-28T13:04:42.681Z,70.36
2023-01-28T13:07:15.797Z,71.76
2023-01-28T13:09:55.034Z,72.29
2023-01-28T13:12:23.118Z,72.28
2023-01-28T13:14:52.668Z,71.71
2023-01-28T13:17:32.308Z,72.02
2023-01-28T13:20:00.294Z,72.74
2023-01-28T13:22:35.330Z,72.95
2023-01-28T13:25:23.579Z,73.40
2023-01-28T13:27:58.632Z,72.52
2023-01-28T13:30:31.321Z,73.59
2023-01-28T13:33:03.983Z,72.34
2023-01-28T13:35:39.771Z,73.12
2023-01-28T13:38:21.212Z,73.28
2023-01-28T13:41:06.606Z,72.09
2023-01-28T13:43:33.173Z,71.78
2023-01-28T13:46:03.032Z,71.35
2023-01-28T13:48:32.745Z,71.97
2023-01-28T13:51:01.242Z,71.70
2023-01-28T13:53:37.485Z,71.12
2023-01-28T13:56:10.262Z,70.61
2023-01-28T13:58:57.084Z,71.53
2023-01-28T14:01:34.878Z,70.80
2023-01-28T14:04:36.495Z,68.90
2023-01-28T14:07:12.550Z,67.55
2023-01-28T14:10:03.370Z,67.53
2023-01-28T14:12:40.815Z,70.10
2023-01-28T14:15:40.845Z,68.61
2023-01-28T14:18:25.472Z,68.66
2023-01-28T14:20:54.572Z,69.04
2023-01-28T14:23:23.070Z,70.09
2023-01-28T14:26:11.507Z,68.43
2023-01-28T14:28:48.686Z,69.10
2023-01-28T14:31:29.136Z,68.56
2023-01-28T14:34:05.127Z,70.24
2023-01-28T14:36:32.169Z,69.93
2023-01-28T14:38:58.867Z,71.32
2023-01-28T14:41:27.996Z,73.38
2023-01-28T14:43:56.156Z,71.21
2023-01-28T14:46:29.702Z,70.45
2023-01-28T14:49:34.101Z,68.72
2023-01-28T14:52:19.134Z,69.70
2023-01-28T14:55:25.691Z,68.28
2023-01-28T14:57:59.952Z,68.12
2023-01-28T15:00:29.900Z,67.71
2023-01-28T15:02:56.847Z,68.40
2023-01-28T15:05:26.557Z,68.84
2023-01-28T15:07:53.708Z,71.94
2023-01-28T15:10:29.994Z,71.99
2023-01-28T15:13:01.285Z,70.16
2023-01-28T15:15:34.999Z,70.60
2023-01-28T15:18:12.526Z,70.18
2023-01-28T15:20:39.439Z,70.02
2023-01-28T15:23:07.776Z,70.80
2023-01-28T15:25:34.527Z,70.92
2023-01-28T15:28:02.301Z,70.38
2023-01-28T15:30:31.650Z,70.37
2023-01-28T15:32:58.830Z,70.11
2023-01-28T15:35:25.938Z,70.27
2023-01-28T15:37:52.654Z,71.51
2023-01-28T15:40:21.437Z,71.55
2023-01-28T15:42:49.373Z,71.08
2023-01-28T15:45:22.336Z,70.89
2023-01-28T15:47:50.496Z,71.28
2023-01-28T15:50:26.073Z,71.04
2023-01-28T15:52:55.540Z,71.56
2023-01-28T15:55:43.794Z,70.34
2023-01-28T15:58:33.526Z,70.25
2023-01-28T16:01:13.566Z,70.74
2023-01-28T16:03:43.550Z,70.90
2023-01-28T16:06:20.311Z,70.70
2023-01-28T16:08:58.904Z,69.83
2023-01-28T16:11:32.627Z,70.43
2023-01-28T16:14:00.565Z,71.49
2023-01-28T16:16:31.192Z,70.90
2023-01-28T16:18:58.539Z,71.39
2023-01-28T16:21:30.702Z,69.99
2023-01-28T16:24:26.473Z,70.19
2023-01-28T16:27:04.476Z,71.00
2023-01-28T16:29:31.629Z,71.68
2023-01-28T16:32:00.005Z,71.07
2023-01-28T16:34:30.300Z,71.56
2023-01-28T16:36:59.160Z,72.56
2023-01-28T16:39:25.788Z,73.17
2023-01-28T16:41:53.650Z,72.34
2023-01-28T16:44:20.318Z,70.94
2023-01-28T16:46:47.059Z,70.83
2023-01-28T16:49:13.755Z,71.34
2023-01-28T16:51:44.012Z,71.60
2023-01-28T16:54:16.618Z,71.67
2023-01-28T16:56:46.010Z,71.83
2023-01-28T16:59:15.399Z,72.36
2023-01-28T17:01:43.739Z,72.06
2023-01-28T17:04:12.346Z,72.78
2023-01-28T17:06:44.612Z,71.98
2023-01-28T17:09:13.992Z,73.26
2023-01-28T17:11:41.119Z,73.79
2023-01-28T17:14:08.878Z,73.58
2023-01-28T17:16:35.768Z,73.88
2023-01-28T17:19:02.672Z,74.71
2023-01-28T17:21:29.298Z,74.99
2023-01-28T17:23:58.107Z,75.06
2023-01-28T17:26:25.034Z,75.10
2023-01-28T17:28:53.440Z,74.99
2023-01-28T17:31:21.107Z,75.28
2023-01-28T17:33:47.929Z,75.47
2023-01-28T17:36:14.568Z,74.81
2023-01-28T17:38:45.421Z,75.04
2023-01-28T17:41:13.724Z,75.46
2023-01-28T17:43:40.805Z,75.53
2023-01-28T17:46:12.440Z,74.90
2023-01-28T17:48:40.062Z,75.29
2023-01-28T17:51:07.154Z,75.03
2023-01-28T17:53:33.824Z,74.93
2023-01-28T17:56:00.461Z,75.48
2023-01-28T17:58:27.116Z,75.99
2023-01-28T18:00:53.797Z,76.21
2023-01-28T18:03:20.430Z,76.35
2023-01-28T18:05:58.147Z,76.90
2023-01-28T18:08:24.841Z,76.75
2023-01-28T18:10:51.505Z,77.00
2023-01-28T18:13:18.208Z,76.47
2023-01-28T18:15:44.843Z,76.75
2023-01-28T18:18:11.473Z,76.84
2023-01-28T18:20:38.117Z,77.31
2023-01-28T18:23:04.820Z,75.98
2023-01-28T18:25:31.448Z,76.53
2023-01-28T18:27:58.065Z,77.40
2023-01-28T18:30:24.684Z,77.24
2023-01-28T18:32:51.423Z,76.99
2023-01-28T18:35:18.412Z,77.29
2023-01-28T18:37:45.283Z,76.53
2023-01-28T18:40:12.388Z,77.20
2023-01-28T18:42:39.253Z,76.62
2023-01-28T18:45:06.561Z,76.43
2023-01-28T18:47:33.134Z,76.38
2023-01-28T18:49:59.905Z,76.42
2023-01-28T18:52:26.681Z,77.62
2023-01-28T18:54:53.926Z,78.75
2023-01-28T18:57:20.578Z,78.61
2023-01-28T18:59:47.565Z,78.01
2023-01-28T19:02:15.709Z,77.41
2023-01-28T19:04:42.983Z,76.86
2023-01-28T19:07:11.794Z,77.15
2023-01-28T19:09:38.741Z,77.87
2023-01-28T19:12:05.579Z,78.25
2023-01-28T19:14:32.516Z,78.05
2023-01-28T19:16:59.286Z,77.66
2023-01-28T19:19:26.117Z,77.99
2023-01-28T19:21:53.517Z,78.36
2023-01-28T19:24:20.543Z,78.60
2023-01-28T19:26:47.180Z,79.05
2023-01-28T19:29:16.319Z,78.64
2023-01-28T19:31:44.399Z,77.73
2023-01-28T19:34:11.459Z,77.67
2023-01-28T19:36:38.128Z,77.38
2023-01-28T19:39:07.864Z,78.28
2023-01-28T19:41:35.987Z,78.07
2023-01-28T19:44:03.415Z,77.96
2023-01-28T19:46:30.360Z,78.46
2023-01-28T19:48:57.260Z,78.77
2023-01-28T19:51:24.040Z,78.81
2023-01-28T19:53:53.155Z,77.55
2023-01-28T19:56:21.618Z,76.99
2023-01-28T19:58:48.445Z,76.54
2023-01-28T20:01:18.081Z,76.62
2023-01-28T20:03:45.698Z,76.27
2023-01-28T20:06:14.773Z,76.24
2023-01-28T20:08:41.892Z,76.93
2023-01-28T20:11:13.963Z,76.19
2023-01-28T20:13:42.760Z,77.50
2023-01-28T20:16:16.696Z,77.30
2023-01-28T20:18:43.477Z,77.27
2023-01-28T20:21:10.059Z,77.44
2023-01-28T20:23:36.752Z,77.79
2023-01-28T20:26:03.440Z,76.74
2023-01-28T20:28:30.231Z,76.91
2023-01-28T20:30:56.971Z,76.78
2023-01-28T20:33:23.703Z,77.18
2023-01-28T20:35:50.287Z,77.31
2023-01-28T20:38:16.936Z,77.05
2023-01-28T20:40:43.974Z,77.27
2023-01-28T20:43:10.599Z,77.36
2023-01-28T20:45:37.465Z,77.79
2023-01-28T20:48:04.264Z,78.51
2023-01-28T20:50:30.936Z,78.25
2023-01-28T20:52:57.899Z,77.82
2023-01-28T20:55:24.607Z,77.88
2023-01-28T20:57:52.670Z,77.49
2023-01-28T21:00:19.965Z,77.84
2023-01-28T21:02:46.644Z,77.65
2023-01-28T21:05:13.765Z,77.58
2023-01-28T21:07:40.677Z,77.89
2023-01-28T21:10:07.700Z,77.76
2023-01-28T21:12:34.743Z,77.84
2023-01-28T21:15:01.497Z,78.07
2023-01-28T21:17:28.143Z,77.71
2023-01-28T21:19:54.792Z,77.73
2023-01-28T21:22:21.526Z,77.48
2023-01-28T21:24:51.184Z,78.19
2023-01-28T21:27:17.878Z,78.17
2023-01-28T21:29:44.505Z,78.04
2023-01-28T21:32:11.241Z,78.22
2023-01-28T21:34:38.186Z,77.88
2023-01-28T21:37:04.829Z,78.09
2023-01-28T21:39:31.533Z,78.70
2023-01-28T21:41:58.201Z,78.76
2023-01-28T21:44:24.814Z,79.12
2023-01-28T21:46:51.489Z,79.03
2023-01-28T21:49:18.149Z,79.38
2023-01-28T21:51:47.338Z,79.65
2023-01-28T21:54:17.052Z,80.33
2023-01-28T21:56:45.343Z,80.53
2023-01-28T21:59:27.974Z,80.90
2023-01-28T22:02:02.687Z,80.57
2023-01-28T22:04:40.701Z,81.23
2023-01-28T22:07:11.405Z,81.00
2023-01-28T22:09:38.565Z,81.31
2023-01-28T22:12:09.660Z,81.73
2023-01-28T22:14:38.295Z,81.92
2023-01-28T22:17:07.468Z,82.28
2023-01-28T22:19:34.133Z,82.41
2023-01-28T22:22:01.019Z,82.56
2023-01-28T22:24:28.140Z,82.33
2023-01-28T22:26:54.810Z,82.45
2023-01-28T22:29:23.328Z,82.41
2023-01-28T22:31:52.209Z,82.87
2023-01-28T22:34:20.645Z,83.12
2023-01-28T22:36:47.750Z,83.14
2023-01-28T22:39:16.043Z,83.06
2023-01-28T22:41:44.100Z,83.52
2023-01-28T22:44:10.785Z,83.65
2023-01-28T22:46:37.940Z,83.91
2023-01-28T22:49:05.388Z,84.09
2023-01-28T22:51:35.197Z,83.93
2023-01-28T22:54:02.305Z,83.72
2023-01-28T22:56:29.821Z,82.73
2023-01-28T22:58:58.842Z,82.58
2023-01-28T23:01:25.993Z,82.38
2023-01-28T23:03:53.284Z,82.09
2023-01-28T23:06:22.228Z,82.40
2023-01-28T23:08:49.483Z,82.87
2023-01-28T23:11:28.204Z,82.77
2023-01-28T23:14:16.563Z,83.38
2023-01-28T23:17:02.428Z,83.80
2023-01-28T23:19:47.632Z,83.81
2023-01-28T23:22:38.909Z,83.70
2023-01-28T23:25:05.787Z,83.66
2023-01-28T23:27:32.468Z,83.76
2023-01-28T23:29:59.046Z,83.58
2023-01-28T23:32:26.332Z,83.57
2023-01-28T23:34:52.981Z,84.35
2023-01-28T23:37:19.730Z,84.55
2023-01-28T23:39:46.314Z,84.01
2023-01-28T23:42:19.081Z,83.93
2023-01-28T23:44:45.828Z,83.88
2023-01-28T23:47:13.041Z,83.81
2023-01-28T23:49:39.916Z,83.58
2023-01-28T23:52:07.776Z,83.66
2023-01-28T23:54:35.089Z,83.70
2023-01-28T23:57:02.539Z,83.77
2023-01-28T23:59:29.327Z,84.08
